createdAt,value
2018-09-26T00:00:40.316Z,67.10
2018-09-26T00:03:18.093Z,68.30
2018-09-26T00:05:46.758Z,69.50
2018-09-26T00:08:15.207Z,70.70
2018-09-26T00:10:43.626Z,71.80
2018-09-26T00:13:12.082Z,72.10
2018-09-26T00:15:40.499Z,72.20
2018-09-26T00:18:08.939Z,72.80
2018-09-26T00:20:37.475Z,73.60
2018-09-26T00:23:05.959Z,74.30
2018-09-26T00:25:34.412Z,75.00
2018-09-26T00:28:02.835Z,75.70
2018-09-26T00:30:31.286Z,76.30
2018-09-26T00:32:59.727Z,76.00
2018-09-26T00:35:28.178Z,75.20
2018-09-26T00:37:56.607Z,74.00
2018-09-26T00:40:25.080Z,72.00
2018-09-26T00:42:53.499Z,72.40
2018-09-26T00:45:21.952Z,72.20
2018-09-26T00:47:50.389Z,70.30
2018-09-26T00:50:18.851Z,70.30
2018-09-26T00:52:47.268Z,69.80
2018-09-26T00:55:15.720Z,68.60
2018-09-26T00:57:44.158Z,69.40
2018-09-26T01:00:12.659Z,66.60
2018-09-26T01:02:41.100Z,68.20
2018-09-26T01:05:09.555Z,67.20
2018-09-26T01:07:37.987Z,67.00
2018-09-26T01:10:06.515Z,68.00
2018-09-26T01:12:35.012Z,68.00
2018-09-26T01:15:03.520Z,67.00
2018-09-26T01:17:31.959Z,66.70
2018-09-26T01:20:00.410Z,67.50
2018-09-26T01:22:28.885Z,71.10
2018-09-26T01:24:57.391Z,73.00
2018-09-26T01:27:25.818Z,74.80
2018-09-26T01:29:54.267Z,75.20
2018-09-26T01:32:22.705Z,75.50
2018-09-26T01:34:51.159Z,75.70
2018-09-26T01:37:19.573Z,75.90
2018-09-26T01:39:48.032Z,76.10
2018-09-26T01:42:16.466Z,76.70
2018-09-26T01:44:44.923Z,77.10
2018-09-26T01:47:13.359Z,77.70
2018-09-26T01:49:41.835Z,78.60
2018-09-26T01:52:10.262Z,78.80
2018-09-26T01:54:38.684Z,79.50
2018-09-26T01:57:07.275Z,79.30
2018-09-26T01:59:35.726Z,79.60
2018-09-26T02:02:04.281Z,80.40
2018-09-26T02:04:32.709Z,81.40
2018-09-26T02:07:01.160Z,81.90
2018-09-26T02:09:29.613Z,81.80
2018-09-26T02:11:58.079Z,82.10
2018-09-26T02:14:26.514Z,82.10
2018-09-26T02:16:54.970Z,83.40
2018-09-26T02:19:23.415Z,84.20
2018-09-26T02:21:51.889Z,83.70
2018-09-26T02:24:20.379Z,83.50
2018-09-26T02:26:48.836Z,84.30
2018-09-26T02:29:17.267Z,84.70
2018-09-26T02:31:45.730Z,85.50
2018-09-26T02:34:14.167Z,84.60
2018-09-26T02:36:42.636Z,84.60
2018-09-26T02:39:11.075Z,84.00
2018-09-26T02:41:39.603Z,83.90
2018-09-26T02:44:08.046Z,84.10
2018-09-26T02:46:36.520Z,84.10
2018-09-26T02:49:05.646Z,83.70
2018-09-26T02:51:35.607Z,83.20
2018-09-26T02:54:04.245Z,83.50
2018-09-26T02:56:32.707Z,83.60
2018-09-26T02:59:01.203Z,83.40
2018-09-26T03:01:29.723Z,83.10
2018-09-26T03:03:58.167Z,82.50
2018-09-26T03:06:26.679Z,82.80
2018-09-26T03:08:55.115Z,82.60
2018-09-26T03:11:23.569Z,81.70
2018-09-26T03:13:52.052Z,82.50
2018-09-26T03:16:20.516Z,82.50
2018-09-26T03:18:48.984Z,82.30
2018-09-26T03:21:17.426Z,82.70
2018-09-26T03:23:45.886Z,82.30
2018-09-26T03:26:14.337Z,82.20
2018-09-26T03:28:42.805Z,82.10
2018-09-26T03:31:11.231Z,80.80
2018-09-26T03:33:39.698Z,80.30
2018-09-26T03:36:08.163Z,80.30
2018-09-26T03:38:36.615Z,80.40
2018-09-26T03:41:05.080Z,80.20
2018-09-26T03:43:33.536Z,80.10
2018-09-26T03:46:01.980Z,80.60
2018-09-26T03:48:30.443Z,81.00
2018-09-26T03:50:58.879Z,81.00
2018-09-26T03:53:27.338Z,80.70
2018-09-26T03:55:55.776Z,81.20
2018-09-26T03:58:24.242Z,81.70
2018-09-26T04:00:52.676Z,81.10
2018-09-26T04:03:21.137Z,79.30
2018-09-26T04:05:49.571Z,77.60
2018-09-26T04:08:18.032Z,78.60
2018-09-26T04:10:46.480Z,77.20
2018-09-26T04:13:15.111Z,76.70
2018-09-26T04:15:51.207Z,76.90
2018-09-26T04:18:20.259Z,76.90
2018-09-26T04:20:48.699Z,78.50
2018-09-26T04:23:17.167Z,79.10
2018-09-26T04:25:46.309Z,80.10
2018-09-26T04:28:14.795Z,80.20
2018-09-26T04:30:43.243Z,80.80
2018-09-26T04:33:11.968Z,82.00
2018-09-26T04:35:40.240Z,82.40
2018-09-26T04:38:09.186Z,81.80
2018-09-26T04:40:37.716Z,81.90
2018-09-26T04:43:06.569Z,81.90
2018-09-26T04:45:35.086Z,81.90
2018-09-26T04:48:03.532Z,82.40
2018-09-26T04:50:32.143Z,83.00
2018-09-26T04:53:00.617Z,84.00
2018-09-26T04:55:29.079Z,84.90
2018-09-26T04:57:57.558Z,85.50
2018-09-26T05:00:25.955Z,85.80
2018-09-26T05:02:54.395Z,86.70
2018-09-26T05:05:22.843Z,88.00
2018-09-26T05:07:51.285Z,88.30
2018-09-26T05:10:19.736Z,88.80
2018-09-26T05:12:48.178Z,88.00
2018-09-26T05:15:17.033Z,88.00
2018-09-26T05:17:45.455Z,87.80
2018-09-26T05:20:14.024Z,88.40
2018-09-26T05:22:42.458Z,89.20
2018-09-26T05:25:10.947Z,88.60
2018-09-26T05:27:39.375Z,88.40
2018-09-26T05:30:07.979Z,86.20
2018-09-26T05:32:36.399Z,85.60
2018-09-26T05:35:04.880Z,84.80
2018-09-26T05:37:33.332Z,83.50
2018-09-26T05:40:01.815Z,82.20
2018-09-26T05:42:30.288Z,81.30
2018-09-26T05:44:58.763Z,80.60
2018-09-26T05:47:27.262Z,80.40
2018-09-26T05:49:55.739Z,78.60
2018-09-26T05:52:24.158Z,78.60
2018-09-26T05:54:52.607Z,76.80
2018-09-26T05:57:21.017Z,77.30
2018-09-26T05:59:49.532Z,77.20
2018-09-26T06:02:18.017Z,77.10
2018-09-26T06:04:46.482Z,76.70
2018-09-26T06:07:14.915Z,76.90
2018-09-26T06:09:43.390Z,76.80
2018-09-26T06:12:11.836Z,76.20
2018-09-26T06:14:40.271Z,75.80
2018-09-26T06:17:08.724Z,74.20
2018-09-26T06:19:37.215Z,73.70
2018-09-26T06:22:05.692Z,74.00
2018-09-26T06:24:34.152Z,71.50
2018-09-26T06:27:02.627Z,72.50
2018-09-26T06:29:31.099Z,73.80
2018-09-26T06:31:59.548Z,74.60
2018-09-26T06:34:28.004Z,74.90
2018-09-26T06:36:56.469Z,75.60
2018-09-26T06:39:24.899Z,75.50
2018-09-26T06:41:53.363Z,75.40
2018-09-26T06:44:21.837Z,74.30
2018-09-26T06:46:50.348Z,74.40
2018-09-26T06:49:18.862Z,75.10
2018-09-26T06:51:47.311Z,74.20
2018-09-26T06:54:15.758Z,73.60
2018-09-26T06:56:44.246Z,74.30
2018-09-26T06:59:12.759Z,74.60
2018-09-26T07:01:41.248Z,73.90
2018-09-26T07:04:09.727Z,71.60
2018-09-26T07:06:38.191Z,72.00
2018-09-26T07:09:08.199Z,72.00
2018-09-26T07:11:36.659Z,72.70
2018-09-26T07:14:05.129Z,71.60
2018-09-26T07:16:33.588Z,72.30
2018-09-26T07:19:02.023Z,71.30
2018-09-26T07:21:30.497Z,70.60
2018-09-26T07:23:58.993Z,71.10
2018-09-26T07:26:27.460Z,70.90
2018-09-26T07:28:55.919Z,69.80
2018-09-26T07:31:24.439Z,69.00
2018-09-26T07:33:53.058Z,67.70
2018-09-26T07:36:21.539Z,67.90
2018-09-26T07:38:49.980Z,67.70
2018-09-26T07:41:18.619Z,66.20
2018-09-26T07:43:46.960Z,65.50
2018-09-26T07:46:15.426Z,62.30
2018-09-26T07:48:43.868Z,61.50
2018-09-26T07:51:12.343Z,60.40
2018-09-26T07:53:40.815Z,60.80
2018-09-26T07:56:09.284Z,59.50
2018-09-26T07:58:37.735Z,59.30
2018-09-26T08:01:06.248Z,58.90
2018-09-26T08:03:34.736Z,58.30
2018-09-26T08:06:03.258Z,58.30
2018-09-26T08:08:31.659Z,58.70
2018-09-26T08:11:00.098Z,58.90
2018-09-26T08:13:28.555Z,57.50
2018-09-26T08:15:56.987Z,56.70
2018-09-26T08:18:25.466Z,56.30
2018-09-26T08:20:53.906Z,56.70
2018-09-26T08:23:22.440Z,56.40
2018-09-26T08:25:50.874Z,56.90
2018-09-26T08:28:19.336Z,56.80
2018-09-26T08:30:47.791Z,55.60
2018-09-26T08:33:16.283Z,55.00
2018-09-26T08:35:44.714Z,54.50
2018-09-26T08:38:13.156Z,54.50
2018-09-26T08:40:41.652Z,54.80
2018-09-26T08:43:10.114Z,53.30
2018-09-26T08:45:38.541Z,53.10
2018-09-26T08:48:07.080Z,52.60
2018-09-26T08:50:35.523Z,53.20
2018-09-26T08:53:03.991Z,53.40
2018-09-26T08:55:32.431Z,53.60
2018-09-26T08:58:00.909Z,53.20
2018-09-26T09:00:36.205Z,54.50
2018-09-26T09:03:05.955Z,54.30
2018-09-26T09:05:34.422Z,54.20
2018-09-26T09:08:02.875Z,54.50
2018-09-26T09:10:31.334Z,54.60
2018-09-26T09:12:59.923Z,54.40
2018-09-26T09:15:28.837Z,54.10
2018-09-26T09:17:57.320Z,54.10
2018-09-26T09:20:25.867Z,53.80
2018-09-26T09:22:54.319Z,53.00
2018-09-26T09:25:22.767Z,52.50
2018-09-26T09:27:51.210Z,52.40
2018-09-26T09:30:19.663Z,52.40
2018-09-26T09:32:48.252Z,52.90
2018-09-26T09:35:16.709Z,52.20
2018-09-26T09:37:45.199Z,52.50
2018-09-26T09:40:13.727Z,52.20
2018-09-26T09:42:42.200Z,52.10
2018-09-26T09:45:10.884Z,52.30
2018-09-26T09:47:39.582Z,52.30
2018-09-26T09:50:08.355Z,52.10
2018-09-26T09:52:36.799Z,51.80
2018-09-26T09:55:05.303Z,51.20
2018-09-26T09:57:33.740Z,51.00
2018-09-26T10:00:02.288Z,50.20
2018-09-26T10:02:30.821Z,50.80
2018-09-26T10:04:59.295Z,50.50
2018-09-26T10:07:27.714Z,50.40
2018-09-26T10:09:56.160Z,49.90
2018-09-26T10:12:24.580Z,49.60
2018-09-26T10:14:53.082Z,49.20
2018-09-26T10:17:21.566Z,48.60
2018-09-26T10:19:50.007Z,48.30
2018-09-26T10:22:18.443Z,48.80
2018-09-26T10:24:46.890Z,48.20
2018-09-26T10:27:15.346Z,47.70
2018-09-26T10:29:43.819Z,47.90
2018-09-26T10:32:12.315Z,48.10
2018-09-26T10:34:40.767Z,47.20
2018-09-26T10:37:09.216Z,47.50
2018-09-26T10:39:37.749Z,46.40
2018-09-26T10:42:06.271Z,46.90
2018-09-26T10:44:34.739Z,46.60
2018-09-26T10:47:03.206Z,47.50
2018-09-26T10:49:31.658Z,46.00
2018-09-26T10:52:00.101Z,45.70
2018-09-26T10:54:28.577Z,46.20
2018-09-26T10:56:56.999Z,46.00
2018-09-26T10:59:25.475Z,46.00
2018-09-26T11:01:54.036Z,45.40
2018-09-26T11:04:22.515Z,46.10
2018-09-26T11:06:50.960Z,45.40
2018-09-26T11:09:19.403Z,45.00
2018-09-26T11:11:47.864Z,44.50
2018-09-26T11:14:16.323Z,45.70
2018-09-26T11:16:44.831Z,44.40
2018-09-26T11:19:13.276Z,43.60
2018-09-26T11:21:41.743Z,44.30
2018-09-26T11:24:10.193Z,43.90
2018-09-26T11:26:38.839Z,43.90
2018-09-26T11:29:07.213Z,43.40
2018-09-26T11:31:35.707Z,43.40
2018-09-26T11:34:04.352Z,42.90
2018-09-26T11:36:32.832Z,42.10
2018-09-26T11:39:01.325Z,42.70
2018-09-26T11:41:29.850Z,41.90
2018-09-26T11:43:58.309Z,42.00
2018-09-26T11:46:26.774Z,41.90
2018-09-26T11:48:55.228Z,41.70
2018-09-26T11:51:23.698Z,42.00
2018-09-26T11:53:52.160Z,41.60
2018-09-26T11:56:20.688Z,41.60
2018-09-26T11:58:49.173Z,42.00
2018-09-26T12:01:17.736Z,41.20
2018-09-26T12:03:46.178Z,40.50
2018-09-26T12:06:14.685Z,40.30
2018-09-26T12:08:43.071Z,39.90
2018-09-26T12:11:11.563Z,40.70
2018-09-26T12:13:40.032Z,41.30
2018-09-26T12:16:08.686Z,41.60
2018-09-26T12:18:37.148Z,39.60
2018-09-26T12:21:05.677Z,40.20
2018-09-26T12:23:34.107Z,39.60
2018-09-26T12:26:02.576Z,40.20
2018-09-26T12:28:31.050Z,39.80
2018-09-26T12:30:59.503Z,41.00
2018-09-26T12:33:28.019Z,39.90
2018-09-26T12:35:56.448Z,40.00
2018-09-26T12:38:24.911Z,39.90
2018-09-26T12:40:53.382Z,40.00
2018-09-26T12:43:21.832Z,39.60
2018-09-26T12:45:50.259Z,37.70
2018-09-26T12:48:18.786Z,37.90
2018-09-26T12:50:47.243Z,37.00
2018-09-26T12:53:15.704Z,36.90
2018-09-26T12:55:44.135Z,37.90
2018-09-26T12:58:12.606Z,38.50
2018-09-26T13:00:41.107Z,39.10
2018-09-26T13:03:09.570Z,39.20
2018-09-26T13:05:38.023Z,36.70
2018-09-26T13:08:06.665Z,37.60
2018-09-26T13:10:35.148Z,38.20
2018-09-26T13:13:03.613Z,38.10
2018-09-26T13:15:32.049Z,38.50
2018-09-26T13:18:00.518Z,38.40
2018-09-26T13:20:28.959Z,38.00
2018-09-26T13:22:57.430Z,36.40
2018-09-26T13:25:25.912Z,36.10
2018-09-26T13:27:54.408Z,37.70
2018-09-26T13:30:22.870Z,36.80
2018-09-26T13:32:51.349Z,37.20
2018-09-26T13:35:19.831Z,36.80
2018-09-26T13:37:48.327Z,37.20
2018-09-26T13:40:16.835Z,37.40
2018-09-26T13:42:45.374Z,37.40
2018-09-26T13:45:13.803Z,37.90
2018-09-26T13:47:42.248Z,37.20
2018-09-26T13:50:10.707Z,37.10
2018-09-26T13:52:39.183Z,37.30
2018-09-26T13:55:07.688Z,37.10
2018-09-26T13:57:36.192Z,37.50
2018-09-26T14:00:04.795Z,37.30
2018-09-26T14:02:33.280Z,37.10
2018-09-26T14:05:01.735Z,37.60
2018-09-26T14:07:30.231Z,36.90
2018-09-26T14:09:58.662Z,36.60
2018-09-26T14:12:27.131Z,36.00
2018-09-26T14:14:55.589Z,36.20
2018-09-26T14:17:24.147Z,37.10
2018-09-26T14:20:09.387Z,36.80
2018-09-26T14:22:37.942Z,36.00
2018-09-26T14:25:06.567Z,36.00
2018-09-26T14:27:35.157Z,36.70
2018-09-26T14:30:03.904Z,36.40
2018-09-26T14:32:32.475Z,36.40
2018-09-26T14:35:01.066Z,36.80
2018-09-26T14:37:29.680Z,36.70
2018-09-26T14:39:58.248Z,36.10
2018-09-26T14:42:26.836Z,36.30
2018-09-26T14:44:55.394Z,37.00
2018-09-26T14:47:23.956Z,35.70
2018-09-26T14:49:52.543Z,36.50
2018-09-26T14:52:21.123Z,36.10
2018-09-26T14:54:49.729Z,35.80
2018-09-26T14:57:18.323Z,36.60
2018-09-26T14:59:46.875Z,35.50
2018-09-26T15:02:15.471Z,35.10
2018-09-26T15:04:44.051Z,35.30
2018-09-26T15:07:12.624Z,34.40
2018-09-26T15:09:41.187Z,35.80
2018-09-26T15:12:09.790Z,36.50
2018-09-26T15:14:38.345Z,36.80
2018-09-26T15:17:07.041Z,37.00
2018-09-26T15:19:35.675Z,36.40
2018-09-26T15:22:04.265Z,37.40
2018-09-26T15:24:32.866Z,37.40
2018-09-26T15:27:01.421Z,37.30
2018-09-26T15:29:29.983Z,37.10
2018-09-26T15:31:58.547Z,37.60
2018-09-26T15:34:27.114Z,38.00
2018-09-26T15:36:55.711Z,37.60
2018-09-26T15:39:24.293Z,37.20
2018-09-26T15:41:52.911Z,37.40
2018-09-26T15:44:21.607Z,38.60
2018-09-26T15:46:50.150Z,38.40
2018-09-26T15:49:18.772Z,39.10
2018-09-26T15:51:47.335Z,38.80
2018-09-26T15:54:16.014Z,38.80
2018-09-26T15:56:44.596Z,39.10
2018-09-26T15:59:13.247Z,39.50
2018-09-26T16:01:41.811Z,39.30
2018-09-26T16:04:21.663Z,39.80
2018-09-26T16:06:50.103Z,39.40
2018-09-26T16:09:18.579Z,39.70
2018-09-26T16:11:47.055Z,39.70
2018-09-26T16:14:15.631Z,39.70
2018-09-26T16:16:44.081Z,40.60
2018-09-26T16:19:12.662Z,41.40
2018-09-26T16:21:41.115Z,41.40
2018-09-26T16:24:09.609Z,41.40
2018-09-26T16:26:38.119Z,40.90
2018-09-26T16:29:06.662Z,41.60
2018-09-26T16:31:35.227Z,41.30
2018-09-26T16:34:03.755Z,41.50
2018-09-26T16:36:32.294Z,41.70
2018-09-26T16:39:00.771Z,41.40
2018-09-26T16:41:29.514Z,41.40
2018-09-26T16:43:57.963Z,42.80
2018-09-26T16:46:26.463Z,42.20
2018-09-26T16:48:54.915Z,42.40
2018-09-26T16:51:23.407Z,43.40
2018-09-26T16:53:51.855Z,43.40
2018-09-26T16:56:20.332Z,43.80
2018-09-26T16:58:48.796Z,43.80
2018-09-26T17:01:17.335Z,44.20
2018-09-26T17:03:45.784Z,44.60
2018-09-26T17:06:14.255Z,45.50
2018-09-26T17:08:42.743Z,45.90
2018-09-26T17:11:11.223Z,46.10
2018-09-26T17:13:39.701Z,45.90
2018-09-26T17:16:08.289Z,46.50
2018-09-26T17:18:36.968Z,46.80
2018-09-26T17:21:05.459Z,46.80
2018-09-26T17:23:33.927Z,46.70
2018-09-26T17:26:02.442Z,46.70
2018-09-26T17:28:30.934Z,46.70
2018-09-26T17:30:59.378Z,47.90
2018-09-26T17:33:27.839Z,48.10
2018-09-26T17:35:56.333Z,47.90
2018-09-26T17:38:24.776Z,48.10
2018-09-26T17:40:53.328Z,48.50
2018-09-26T17:43:21.766Z,48.70
2018-09-26T17:45:50.252Z,48.90
2018-09-26T17:48:18.764Z,49.40
2018-09-26T17:50:47.196Z,50.10
2018-09-26T17:53:15.651Z,50.40
2018-09-26T17:55:44.091Z,50.80
2018-09-26T17:58:12.587Z,50.70
2018-09-26T18:00:41.123Z,51.20
2018-09-26T18:03:09.612Z,51.20
2018-09-26T18:05:38.064Z,52.10
2018-09-26T18:08:06.569Z,52.10
2018-09-26T18:10:35.055Z,52.00
2018-09-26T18:13:03.543Z,52.70
2018-09-26T18:15:31.992Z,53.70
2018-09-26T18:18:00.486Z,53.60
2018-09-26T18:20:28.984Z,53.90
2018-09-26T18:22:57.529Z,54.30
2018-09-26T18:25:26.031Z,54.10
2018-09-26T18:27:54.689Z,55.60
2018-09-26T18:30:23.095Z,55.20
2018-09-26T18:32:51.631Z,57.40
2018-09-26T18:35:20.147Z,58.30
2018-09-26T18:37:48.710Z,58.80
2018-09-26T18:40:17.240Z,58.70
2018-09-26T18:42:45.760Z,58.50
2018-09-26T18:45:14.232Z,58.90
2018-09-26T18:47:42.787Z,57.60
2018-09-26T18:50:11.296Z,59.60
2018-09-26T18:52:39.811Z,60.70
2018-09-26T18:55:08.346Z,60.60
2018-09-26T18:57:36.863Z,60.80
2018-09-26T19:00:05.435Z,61.70
2018-09-26T19:02:33.920Z,61.20
2018-09-26T19:05:02.520Z,61.80
2018-09-26T19:07:30.972Z,62.30
2018-09-26T19:09:59.426Z,61.80
2018-09-26T19:12:27.997Z,61.40
2018-09-26T19:14:56.526Z,60.30
2018-09-26T19:17:24.955Z,60.00
2018-09-26T19:19:53.431Z,59.90
2018-09-26T19:22:21.944Z,59.80
2018-09-26T19:24:50.450Z,59.90
2018-09-26T19:27:18.983Z,60.10
2018-09-26T19:29:47.415Z,60.10
2018-09-26T19:32:15.892Z,60.10
2018-09-26T19:34:44.370Z,60.00
2018-09-26T19:37:12.858Z,60.00
2018-09-26T19:39:41.364Z,58.80
2018-09-26T19:42:09.916Z,59.70
2018-09-26T19:44:38.387Z,61.80
2018-09-26T19:47:06.875Z,62.10
2018-09-26T19:49:35.364Z,61.80
2018-09-26T19:52:03.871Z,60.80
2018-09-26T19:54:32.431Z,61.20
2018-09-26T19:57:00.928Z,61.10
2018-09-26T19:59:29.391Z,60.80
2018-09-26T20:01:57.889Z,61.50
2018-09-26T20:04:26.332Z,62.40
2018-09-26T20:06:54.784Z,63.00
2018-09-26T20:09:23.262Z,63.30
2018-09-26T20:11:51.729Z,63.70
2018-09-26T20:14:20.203Z,64.30
2018-09-26T20:16:48.636Z,65.10
2018-09-26T20:19:17.105Z,64.50
2018-09-26T20:21:45.554Z,63.70
2018-09-26T20:24:14.040Z,63.50
2018-09-26T20:26:42.584Z,63.30
2018-09-26T20:29:11.030Z,64.60
2018-09-26T20:31:39.450Z,65.00
2018-09-26T20:34:08.148Z,65.30
2018-09-26T20:36:36.618Z,65.20
2018-09-26T20:39:07.902Z,65.10
2018-09-26T20:41:36.373Z,65.90
2018-09-26T20:44:04.828Z,65.80
2018-09-26T20:46:33.297Z,65.80
2018-09-26T20:49:01.756Z,65.50
2018-09-26T20:51:30.376Z,65.60
2018-09-26T20:53:58.851Z,65.80
2018-09-26T20:56:27.335Z,66.70
2018-09-26T20:58:55.794Z,66.00
2018-09-26T21:01:24.254Z,66.90
2018-09-26T21:03:52.696Z,67.10
2018-09-26T21:06:21.191Z,67.10
2018-09-26T21:08:49.643Z,67.10
2018-09-26T21:11:18.155Z,67.10
2018-09-26T21:13:46.598Z,67.10
2018-09-26T21:16:15.122Z,67.10
2018-09-26T21:18:43.604Z,67.90
2018-09-26T21:21:12.074Z,68.50
2018-09-26T21:23:40.813Z,69.00
2018-09-26T21:26:09.284Z,70.00
2018-09-26T21:28:37.716Z,70.80
2018-09-26T21:31:06.193Z,71.30
2018-09-26T21:33:34.636Z,71.50
2018-09-26T21:36:03.113Z,72.30
2018-09-26T21:38:31.549Z,72.90
2018-09-26T21:41:00.045Z,72.90
2018-09-26T21:43:28.504Z,73.30
2018-09-26T21:45:56.937Z,73.50
2018-09-26T21:48:25.386Z,73.70
2018-09-26T21:50:53.823Z,74.10
2018-09-26T21:53:22.327Z,74.30
2018-09-26T21:55:50.755Z,74.50
2018-09-26T21:58:19.208Z,74.60
2018-09-26T22:00:53.048Z,75.20
2018-09-26T22:03:21.556Z,74.80
2018-09-26T22:05:50.047Z,75.30
2018-09-26T22:08:18.565Z,76.00
2018-09-26T22:10:47.182Z,76.40
2018-09-26T22:13:15.644Z,76.60
2018-09-26T22:15:44.128Z,76.50
2018-09-26T22:18:12.621Z,76.40
2018-09-26T22:20:41.065Z,76.90
2018-09-26T22:23:09.571Z,76.80
2018-09-26T22:25:38.000Z,76.70
2018-09-26T22:28:06.715Z,76.20
2018-09-26T22:30:35.180Z,76.70
2018-09-26T22:33:03.784Z,77.80
2018-09-26T22:35:32.390Z,77.40
2018-09-26T22:38:01.009Z,77.60
2018-09-26T22:40:29.591Z,78.40
2018-09-26T22:42:58.072Z,78.00
2018-09-26T22:45:26.547Z,78.00
2018-09-26T22:47:55.100Z,78.50
2018-09-26T22:50:23.548Z,78.70
2018-09-26T22:52:53.129Z,79.00
2018-09-26T22:55:24.680Z,80.00
2018-09-26T22:57:53.174Z,81.70
2018-09-26T23:00:21.612Z,82.50
2018-09-26T23:02:50.061Z,82.50
2018-09-26T23:05:18.520Z,82.90
2018-09-26T23:07:47.006Z,83.40
2018-09-26T23:10:15.477Z,83.70
2018-09-26T23:12:43.948Z,84.40
2018-09-26T23:15:12.384Z,84.30
2018-09-26T23:17:40.872Z,85.00
2018-09-26T23:20:09.404Z,85.30
2018-09-26T23:22:37.845Z,85.40
2018-09-26T23:25:06.331Z,86.10
2018-09-26T23:27:34.820Z,86.50
2018-09-26T23:30:03.311Z,87.70
2018-09-26T23:32:31.786Z,87.00
2018-09-26T23:35:00.255Z,86.50
2018-09-26T23:37:28.751Z,86.10
2018-09-26T23:39:57.209Z,86.20
2018-09-26T23:42:25.708Z,86.40
2018-09-26T23:44:54.166Z,86.20
2018-09-26T23:47:23.043Z,86.20
2018-09-26T23:49:51.521Z,86.10
2018-09-26T23:52:19.968Z,85.80
2018-09-26T23:54:49.335Z,86.20
2018-09-26T23:57:17.768Z,86.40
2018-09-26T23:59:46.262Z,87.30
